createdAt,value
2018-01-29T00:00:04.409Z,8.3
2018-01-29T00:15:04.508Z,8.2
2018-01-29T00:30:05.220Z,8
2018-01-29T00:45:04.714Z,7.9
2018-01-29T01:00:05.109Z,7.9
2018-01-29T01:15:04.538Z,7.7
2018-01-29T01:30:05.121Z,7.7
2018-01-29T01:45:04.756Z,7.5
2018-01-29T02:00:05.494Z,7.5
2018-01-29T02:15:04.790Z,7.4
2018-01-29T02:30:04.439Z,7.6
2018-01-29T02:45:04.579Z,7.6
2018-01-29T03:00:05.254Z,7.9
2018-01-29T03:15:05.032Z,7.8
2018-01-29T03:30:04.856Z,7.9
2018-01-29T03:45:04.317Z,7.9
2018-01-29T04:00:05.104Z,8.1
2018-01-29T04:15:04.976Z,8.1
2018-01-29T04:30:07.659Z,8.1
2018-01-29T04:45:04.541Z,8.2
2018-01-29T05:00:05.427Z,8.3
2018-01-29T05:15:15.178Z,8.3
2018-01-29T05:30:05.574Z,8.3
2018-01-29T05:45:04.485Z,8.2
2018-01-29T06:00:07.558Z,8.1
2018-01-29T06:15:05.554Z,8.2
2018-01-29T06:30:04.981Z,8.2
2018-01-29T06:45:04.443Z,8.3
2018-01-29T07:00:04.878Z,8.2
2018-01-29T07:15:04.345Z,8.1
2018-01-29T07:30:04.510Z,8.2
2018-01-29T07:45:04.940Z,8.3
2018-01-29T08:00:04.452Z,8.4
2018-01-29T08:15:07.380Z,8.7
2018-01-29T08:30:04.971Z,9.3
2018-01-29T08:45:04.475Z,10.3
2018-01-29T09:00:05.002Z,12.3
2018-01-29T09:15:04.889Z,15.5
2018-01-29T09:30:05.101Z,15.7
2018-01-29T09:45:04.525Z,15.3
2018-01-29T10:00:05.484Z,13.8
2018-01-29T10:15:05.959Z,12.7
2018-01-29T10:30:04.544Z,12.4
2018-01-29T10:45:04.972Z,12.3
2018-01-29T11:00:04.352Z,12.1
2018-01-29T11:15:04.722Z,12.3
2018-01-29T11:30:04.830Z,12.1
2018-01-29T11:45:12.124Z,12.1
2018-01-29T12:00:04.945Z,12
2018-01-29T12:15:05.937Z,12.3
2018-01-29T12:30:07.517Z,12.4
2018-01-29T12:45:05.447Z,12.5
2018-01-29T13:00:04.871Z,12.7
2018-01-29T13:15:04.310Z,12.7
2018-01-29T13:30:04.998Z,12.7
2018-01-29T13:45:04.444Z,12.9
2018-01-29T14:00:05.945Z,12.9
2018-01-29T14:15:04.358Z,12.7
2018-01-29T14:30:05.019Z,12.6
2018-01-29T14:45:04.511Z,12.6
2018-01-29T15:00:04.408Z,12.3
2018-01-29T15:15:04.353Z,12.3
2018-01-29T15:30:05.018Z,12.1
2018-01-29T15:45:04.351Z,11.9
2018-01-29T16:00:04.746Z,11.8
2018-01-29T16:15:04.656Z,11.8
2018-01-29T16:30:04.392Z,11.4
2018-01-29T16:45:04.728Z,11.3
2018-01-29T17:00:04.645Z,11.1
2018-01-29T17:15:05.185Z,10.9
2018-01-29T17:30:04.964Z,10.8
2018-01-29T17:45:05.659Z,10.6
2018-01-29T18:00:05.423Z,10.7
2018-01-29T18:15:05.875Z,10.8
2018-01-29T18:30:07.949Z,10.9
2018-01-29T18:45:04.285Z,11
2018-01-29T19:00:04.715Z,10.9
2018-01-29T19:15:05.333Z,10.9
2018-01-29T19:30:04.511Z,10.9
2018-01-29T19:45:04.398Z,10.9
2018-01-29T20:00:04.340Z,10.7
2018-01-29T20:15:04.281Z,11.2
2018-01-29T20:30:04.472Z,11
2018-01-29T20:45:04.964Z,11.1
2018-01-29T21:00:04.308Z,10.9
2018-01-29T21:15:04.770Z,10.8
2018-01-29T21:30:05.213Z,11
2018-01-29T21:45:04.726Z,10.8
2018-01-29T22:00:05.149Z,10.7
2018-01-29T22:15:05.003Z,11.1
2018-01-29T22:30:04.727Z,11.1
2018-01-29T22:45:05.140Z,11.1
2018-01-29T23:00:04.620Z,11.2
2018-01-29T23:15:05.294Z,11.3
2018-01-29T23:30:04.987Z,11.3
2018-01-29T23:45:04.503Z,11.4
